Rowhedge, United Kingdom
Current Conditions -  °F | °C
As of 6:50 AM on Thursday 23 Oct 2014 (Local Time) from EGUW Reporting Station
Broken Clouds Broken Clouds  
Wind Chill: 50°   Ceiling: 2800
Heat Index: 50°   Visibility: 6mi
Dew Point: 46°   Wind: 8mph
Humidity: 87%   Direction: 230°SW
Pressure: 30.12"   Gusts: NA
Location:  51.86°N, 0.95°E
Report Text: EGUW 230550Z 23007KT 9999 BKN028 10/08 Q1020 BLU NOSIG
Loading
Personal Weather Stations






























Interactive Weather Map
Tropical Storm Tracking
New forecast layout! Learn more

10-Day Weather Forecast

Advertisements
Track Severe Weather on mobile